My Meet Scores
Ashley Ribordy, U.S. Gymnastics Training Center - MyMeetScores.com
Top100 | Top Teams | Upcoming Meets | Completed Meets | Latest | Add Scores | Help| Support | Bookmark and Share

Ashley Ribordy, U.S. Gymnastics Training Center
Personal Bests
LevelVault BarsBeamFloorAA
38.6008.225 9.0008.67533.975
48.6508.300 9.2509.05034.350
58.9008.075 8.5759.00033.525
69.2258.800 9.7259.50036.725
Meet Scores
Date Meet Team Session Level Division Vault Bars Beam Floor AA
2021-04-15 Illinois level 6 & Xcel Silver State Champion U.S. Gymnastics Training Center 10 6 Sr E 8.200 32 8.050 27 9.725 3 9.450 10T 35.425 22
2021-02-26 Kinetic Classic 2021 U.S. Gymnastics Training Center 12 6 Older 9.225 4T 8.800 9T 9.200 10 9.500 6T 36.725 5
2021-02-12 Super Girl Invite U.S. Gymnastics Training Center 12 6 All 8.600 7 8.600 10T 9.000 8T 9.500 10 35.700 10
2021-01-15 Leenda's Island Adventure U.S. Gymnastics Training Center A12 6 Sr 7.950 9 7.150 10 9.050 5T 9.150 7T 33.300 9T
2020-02-28 MEGA Spring Invite 2020 U.S. Gymnastics Training Center 2 6 Senior 8.575 12 7.600 20 9.400 8 8.200 18 33.775 18
2020-01-24 Uga Invitational U.S. Gymnastics Training Center 7A 6 Senior 8.625 6 6.150 11 9.450 3T 9.175 6 33.400 9
2020-01-10 St Jude Benefit Meet U.S. Gymnastics Training Center 1B 6 Sr B 8.525 15T 7.500 18 8.100 17 8.450 18 32.575 19
2019-12-13 2019 St Nick U.S. Gymnastics Training Center 4 6 SrA 8.400 8 7.750 10 8.500 6 8.675 10 33.325 8
2019-02-01 The Big Chill U.S. Gymnastics Training Center 1 5 11 & up 0.000 4 7.650 9 8.250 7 8.825 1 33.250 6
2019-01-25 UGA Invitational U.S. Gymnastics Training Center B11 5 Jr C 8.450 13 7.625 13 8.100 13 8.425 11 32.600 14
2019-01-11 Lake Geneva Gymnastics Vacation Classic U.S. Gymnastics Training Center 2 5 Senior 8.750 3 7.850 7 8.200 5T 8.725 3T 33.525 3
2018-12-14 Hawaiian Pineapple Classic U.S. Gymnastics Training Center 4B 5 Ages12+ 8.900 5 8.075 12 0.000 15 8.975 3 25.950 14
2018-11-17 Paul Hamm Thanksgiving Class WOMENS U.S. Gymnastics Training Center 5 5 Older 8.350 15 6.850 18 8.000 13 8.900 9T 32.100 15
2018-11-03 Phyllis Matras Invite U.S. Gymnastics Training Center All 5 All 8.350 24 7.300 27 8.575 10 9.000 7T 33.225 21
2018-03-08 Level 4 & 5 State U.S. Gymnastics Training Center All 4 Sr C 8.650 19T 7.650 29 9.000 20T 9.050 15 34.350 27
2018-02-09 IGI Chicago Style Gymnastics Meet U.S. Gymnastics Training Center 20 4 221 Lake Shore Dr L4 C 8.450 11 7.650 14 9.000 9 8.950 11 34.050 11
2018-01-26 2018 UGA Classic U.S. Gymnastics Training Center B5 4 Senior 7.950 14T 7.950 7 9.000 3 8.900 3 33.800 6
2018-01-12 St Jude Benefit Meet U.S. Gymnastics Training Center 2A 4 SrB 8.625 7 8.300 13 8.850 11 8.475 12 34.250 10
2017-12-08 St. Nick Invite U.S. Gymnastics Training Center 1 4 SrB 7.150 15 7.700 11 8.950 7 8.800 7T 32.600 12
2017-11-16 Paul Hamm Thanksgiving Classic - Women U.S. Gymnastics Training Center 7 4 Older 8.200 24 8.050 26T 8.350 28 8.925 14 33.525 25
2017-11-04 Phyllis Matras Invite U.S. Gymnastics Training Center 4 Sr B 7.400 10 7.700 11 8.600 7 8.425 7 32.125 9
2017-02-17 Big Classic U.S. Gymnastics Training Center B 4 Child B 7.900 49 7.150 50 8.500 45T 7.675 46 31.225 51
2017-02-03 St. Valentines Classic Womens U.S. Gymnastics Training Center 1A 4 8-10 yrs. 7.550 27T 7.150 29 8.650 10T 7.500 28T 30.850 27
2017-01-28 Wisconsin Dells Gymnastics Vacation Classic - USAG U.S. Gymnastics Training Center B7 4 Junior B 8.100 13 7.050 18 7.200 18T 7.925 16 30.275 17
2017-01-13 St Jude Benefit Meet U.S. Gymnastics Training Center 3A 4 Sr A 7.500 19 7.150 19 9.250 6 7.800 18 31.700 19
2016-12-15 2016 Hawaiian Pineapple Sanction U.S. Gymnastics Training Center 8A 4 Age 10 7.600 20T 6.300 21 8.350 15 7.900 21 30.150 21
2016-03-04 2016 Illinois Level 3 State Championships U.S. Gymnastics Training Center 3 Junior-E 8.350 29 8.225 24 8.000 28 8.600 20 33.175 27
2016-02-13 Western Invite U.S. Gymnastics Training Center 3 3 Cowgirl 8.150 9 8.150 6 9.000 2 8.675 6 33.975 6
2016-02-05 St. Valentines Classic U.S. Gymnastics Training Center 2A 3 All Ages 8.600 66T 7.150 66T 8.150 46T 8.200 37T 32.100 54
Get your scores on
a t-shirt, pin, or hoodie

www.lazysuits.com